Time;durP1;ratioP1;P1;durP2;ratioP2;P2;SDS_P1;SDS_P2;PMS_P1;PMS_P2;Temp;Humidity;BMP_temperature;BMP_pressure;BME280_temperature;BME280_humidity;BME280_pressure;Samples;Min_cycle;Max_cycle;Signal;HPM_P1;HPM_P2
2021/12/08 00:00:56;;;;;;;8.47;2.67;;;;;;;5.63;48.05;95167.50;5048190;28;20458;-69
2021/12/08 00:03:24;;;;;;;3.80;2.77;;;;;;;5.60;47.99;95156.66;5042656;28;20226;-68
2021/12/08 00:05:50;;;;;;;6.30;2.60;;;;;;;5.63;47.70;95161.47;5037168;28;20442;-68
2021/12/08 00:08:18;;;;;;;3.17;2.40;;;;;;;5.57;47.82;95152.56;5032829;28;20437;-68
2021/12/08 00:13:25;;;;;;;6.10;2.10;;;;;;;5.51;48.07;95150.69;5055318;28;20468;-70
2021/12/08 00:15:53;;;;;;;5.50;3.07;;;;;;;5.56;48.34;95152.75;5053459;28;20441;-69
2021/12/08 00:18:22;;;;;;;3.77;2.50;;;;;;;5.60;49.28;95152.25;5050385;28;20495;-67
2021/12/08 00:20:48;;;;;;;4.13;2.60;;;;;;;5.47;48.89;95149.38;5052671;28;20487;-68
2021/12/08 00:23:15;;;;;;;4.30;2.60;;;;;;;5.41;49.38;95153.47;5069083;28;20582;-70
2021/12/08 00:25:41;;;;;;;10.63;2.60;;;;;;;5.35;49.80;95148.97;5064330;28;20190;-67
2021/12/08 00:28:07;;;;;;;6.10;2.10;;;;;;;5.47;50.01;95141.59;5072887;28;20748;-68
2021/12/08 00:30:34;;;;;;;4.07;2.37;;;;;;;5.35;49.70;95147.19;5051401;28;20445;-68
2021/12/08 00:33:00;;;;;;;4.43;2.47;;;;;;;5.49;50.08;95150.03;5064185;28;20439;-68
2021/12/08 00:35:27;;;;;;;3.10;2.20;;;;;;;5.52;50.08;95147.91;5061217;28;20444;-68
2021/12/08 00:37:56;;;;;;;8.43;2.40;;;;;;;5.47;49.24;95141.59;5050322;28;20191;-67
2021/12/08 00:40:23;;;;;;;2.87;2.20;;;;;;;5.57;49.06;95139.59;5072037;28;20467;-67
2021/12/08 00:42:49;;;;;;;2.60;2.07;;;;;;;5.37;50.24;95128.81;5070119;28;20860;-68
2021/12/08 00:45:17;;;;;;;4.57;3.03;;;;;;;5.45;50.61;95117.56;5066475;28;20784;-69
2021/12/08 00:47:44;;;;;;;3.47;2.07;;;;;;;5.50;50.98;95121.28;5065196;28;20448;-68
2021/12/08 00:50:11;;;;;;;3.03;2.17;;;;;;;5.43;50.98;95124.72;5069465;28;20420;-68
2021/12/08 00:52:37;;;;;;;3.03;2.43;;;;;;;5.39;51.43;95111.28;5069362;28;20425;-70
2021/12/08 00:55:08;;;;;;;3.73;1.80;;;;;;;5.12;52.93;95108.16;5062961;28;20451;-68
2021/12/08 00:57:35;;;;;;;4.67;2.53;;;;;;;5.05;53.44;95107.22;5077224;28;20444;-65
2021/12/08 01:00:03;;;;;;;3.97;2.17;;;;;;;4.89;53.90;95115.91;5060053;28;20448;-69
2021/12/08 01:02:29;;;;;;;8.20;2.50;;;;;;;4.80;54.85;95120.31;5054085;28;20443;-68
2021/12/08 01:04:54;;;;;;;6.30;2.40;;;;;;;4.67;55.98;95110.44;5070767;28;20436;-68
2021/12/08 01:07:20;;;;;;;2.33;2.13;;;;;;;4.90;56.27;95122.72;5049812;28;20426;-69
2021/12/08 01:09:47;;;;;;;4.70;2.70;;;;;;;5.02;56.04;95121.38;5051097;28;20179;-68
2021/12/08 01:12:13;;;;;;;3.40;2.43;;;;;;;4.80;57.35;95124.66;5064256;28;20277;-68
2021/12/08 01:14:39;;;;;;;2.83;2.23;;;;;;;4.90;57.95;95114.94;5073053;28;20801;-68
2021/12/08 01:17:05;;;;;;;7.37;2.60;;;;;;;4.92;57.55;95120.72;5080647;28;20423;-68
2021/12/08 01:19:31;;;;;;;6.20;2.30;;;;;;;5.05;58.32;95125.41;5077668;28;20186;-68
2021/12/08 01:21:56;;;;;;;6.43;2.17;;;;;;;5.01;58.33;95130.13;5066062;28;20507;-69
2021/12/08 01:24:22;;;;;;;4.70;2.70;;;;;;;4.93;59.43;95135.34;5059425;28;20237;-67
2021/12/08 01:26:48;;;;;;;4.10;2.23;;;;;;;4.84;58.97;95123.38;5045110;28;20199;-68
2021/12/08 01:29:13;;;;;;;4.63;2.50;;;;;;;4.75;59.33;95131.19;5054707;28;20179;-68
2021/12/08 01:31:42;;;;;;;4.13;2.57;;;;;;;4.64;60.92;95134.13;5078645;28;20189;-69
2021/12/08 01:34:12;;;;;;;5.43;2.93;;;;;;;4.70;61.46;95128.28;5083422;28;20202;-67
2021/12/08 01:36:38;;;;;;;3.97;2.50;;;;;;;4.64;61.76;95121.16;5070653;28;20485;-67
2021/12/08 01:39:05;;;;;;;5.03;2.30;;;;;;;4.84;61.72;95123.38;5055743;28;20787;-67
2021/12/08 01:41:31;;;;;;;4.20;2.20;;;;;;;4.84;62.14;95115.59;5071004;28;20489;-67
2021/12/08 01:46:53;;;;;;;4.53;2.47;;;;;;;4.53;62.67;95105.97;5057939;28;20210;-67
2021/12/08 01:49:19;;;;;;;6.20;2.60;;;;;;;4.67;62.85;95105.25;5071113;28;20448;-67
2021/12/08 01:51:44;;;;;;;4.27;2.27;;;;;;;4.78;62.97;95111.88;5070395;28;20501;-67
2021/12/08 01:54:10;;;;;;;5.77;2.50;;;;;;;4.81;62.64;95101.16;5062916;28;20202;-68
2021/12/08 01:56:37;;;;;;;5.00;2.40;;;;;;;4.94;63.02;95102.41;5071451;28;20190;-67
2021/12/08 01:59:05;;;;;;;3.53;2.73;;;;;;;5.01;62.80;95096.38;5073144;28;20543;-69
2021/12/08 02:01:37;;;;;;;3.77;2.20;;;;;;;4.74;63.25;95105.38;5070682;28;20464;-69
2021/12/08 02:04:04;;;;;;;2.10;1.90;;;;;;;4.81;63.14;95110.72;5059035;28;20455;-68
2021/12/08 02:06:32;;;;;;;2.50;2.30;;;;;;;4.89;63.52;95108.91;5056559;28;20460;-68
2021/12/08 02:08:58;;;;;;;3.20;2.53;;;;;;;4.92;64.11;95102.56;5065737;28;20432;-70
2021/12/08 02:11:24;;;;;;;2.70;2.20;;;;;;;4.66;64.52;95098.47;5071199;28;20823;-67
2021/12/08 02:13:52;;;;;;;4.73;2.70;;;;;;;4.92;63.92;95105.16;5072038;28;20436;-68
2021/12/08 02:16:18;;;;;;;7.97;2.80;;;;;;;4.72;64.37;95097.78;5040026;28;20185;-68
2021/12/08 02:18:47;;;;;;;2.90;2.30;;;;;;;4.89;63.75;95097.72;5076446;28;20507;-69
2021/12/08 02:21:32;;;;;;;5.70;3.47;;;;;;;4.98;63.81;95098.50;5070267;28;20935;-68
2021/12/08 02:24:01;;;;;;;2.53;2.30;;;;;;;5.08;63.40;95092.13;5053889;28;20881;-68
2021/12/08 02:26:28;;;;;;;3.70;2.60;;;;;;;4.79;63.93;95099.72;5046938;28;20438;-67
2021/12/08 02:28:54;;;;;;;3.83;2.57;;;;;;;4.86;64.29;95105.84;5057560;28;20803;-68
2021/12/08 02:31:30;;;;;;;4.67;2.60;;;;;;;4.98;63.79;95103.69;5073706;28;20429;-67
2021/12/08 02:47:53;;;;;;;4.33;2.93;;;;;;;4.54;65.13;95098.00;5071642;28;20416;-69
2021/12/08 02:50:22;;;;;;;5.90;2.80;;;;;;;4.95;64.60;95098.84;5071851;28;20428;-68
2021/12/08 02:52:47;;;;;;;3.87;2.83;;;;;;;5.01;65.05;95091.19;5073543;28;20535;-67
2021/12/08 02:55:13;;;;;;;3.83;2.87;;;;;;;5.13;64.63;95093.41;5063129;28;20524;-67
2021/12/08 02:57:39;;;;;;;5.03;2.83;;;;;;;5.12;64.79;95084.00;5060452;28;20183;-67
2021/12/08 03:00:07;;;;;;;4.17;2.90;;;;;;;5.10;65.30;95078.16;5072481;28;20638;-68
2021/12/08 03:02:33;;;;;;;4.40;3.10;;;;;;;5.22;64.86;95077.63;5072125;28;20179;-68
2021/12/08 03:04:58;;;;;;;3.57;2.80;;;;;;;5.11;65.89;95067.59;5071244;28;20432;-68
2021/12/08 03:07:24;;;;;;;5.80;2.90;;;;;;;5.11;65.16;95069.41;5063390;28;20186;-68
2021/12/08 03:09:49;;;;;;;5.30;2.80;;;;;;;5.01;66.04;95067.81;5070845;28;20237;-69
2021/12/08 03:12:15;;;;;;;3.10;2.73;;;;;;;5.07;66.88;95067.13;5065484;28;20184;-67
2021/12/08 03:14:41;;;;;;;4.63;2.93;;;;;;;5.10;66.10;95078.16;5046248;28;20753;-69
2021/12/08 03:17:09;;;;;;;6.13;3.20;;;;;;;5.10;67.25;95083.34;5073225;28;20178;-69
2021/12/08 03:19:35;;;;;;;9.53;6.80;;;;;;;5.18;67.02;95085.91;5073127;28;20221;-68
2021/12/08 03:22:08;;;;;;;5.07;3.57;;;;;;;4.84;68.08;95077.47;5066638;28;20540;-68
2021/12/08 03:24:37;;;;;;;6.57;3.10;;;;;;;4.76;68.51;95086.09;5057022;28;20734;-66
2021/12/08 03:29:55;;;;;;;9.13;3.70;;;;;;;5.16;67.46;95093.06;5052761;28;20536;-68
2021/12/08 03:32:31;;;;;;;3.63;3.17;;;;;;;5.20;67.43;95086.53;5070130;28;20482;-68
2021/12/08 03:34:57;;;;;;;8.73;4.40;;;;;;;5.19;67.06;95090.13;5072970;28;20420;-68
2021/12/08 03:37:29;;;;;;;5.33;3.50;;;;;;;5.16;66.82;95093.06;5064043;28;20436;-68
2021/12/08 03:39:57;;;;;;;5.43;3.70;;;;;;;5.11;67.59;95085.78;5072306;28;20227;-67
2021/12/08 03:42:26;;;;;;;6.50;4.63;;;;;;;5.19;67.16;95087.50;5072702;28;20499;-66
2021/12/08 03:44:55;;;;;;;6.53;4.37;;;;;;;5.07;67.74;95100.09;5070054;28;21002;-69
2021/12/08 03:47:26;;;;;;;6.10;3.87;;;;;;;5.23;67.66;95081.00;5070321;28;20420;-67
2021/12/08 03:49:53;;;;;;;8.03;4.20;;;;;;;5.30;67.32;95087.13;5065989;28;20424;-67
2021/12/08 03:52:18;;;;;;;7.57;4.10;;;;;;;4.82;68.71;95081.19;5061363;28;20428;-68
2021/12/08 03:54:44;;;;;;;9.47;4.43;;;;;;;5.16;67.86;95088.69;5072014;28;20444;-68
2021/12/08 03:57:10;;;;;;;9.07;4.50;;;;;;;5.07;68.31;95081.91;5072514;28;20209;-68
2021/12/08 03:59:35;;;;;;;6.63;4.30;;;;;;;5.21;67.73;95075.19;5070759;28;20186;-67
2021/12/08 04:02:01;;;;;;;6.70;3.60;;;;;;;4.95;68.90;95081.47;5072235;28;20216;-68
2021/12/08 04:04:29;;;;;;;11.10;3.87;;;;;;;5.24;68.46;95077.44;5070042;28;20568;-66
2021/12/08 04:06:56;;;;;;;7.13;4.20;;;;;;;5.36;68.40;95089.06;5056452;28;20547;-69
2021/12/08 04:09:32;;;;;;;11.93;3.83;;;;;;;5.14;68.88;95082.84;5071452;28;20518;-67
2021/12/08 04:11:58;;;;;;;5.77;4.43;;;;;;;5.08;69.34;95081.72;5072187;28;20427;-68
2021/12/08 04:14:32;;;;;;;7.20;4.53;;;;;;;5.30;68.83;95086.34;5050679;28;20478;-68
2021/12/08 04:17:04;;;;;;;6.53;4.60;;;;;;;5.17;69.47;95085.09;5051410;28;20474;-69
2021/12/08 04:19:30;;;;;;;6.10;4.60;;;;;;;5.53;68.70;95091.56;5054486;28;20434;-68
2021/12/08 04:21:58;;;;;;;7.77;4.90;;;;;;;5.45;69.47;95096.78;5054901;28;20514;-68
2021/12/08 04:24:23;;;;;;;8.90;5.00;;;;;;;5.30;69.90;95087.13;5051992;28;20203;-68
2021/12/08 04:26:56;;;;;;;10.17;6.40;;;;;;;5.35;69.53;95084.03;5050642;28;20426;-67
2021/12/08 04:29:27;;;;;;;6.90;4.60;;;;;;;5.34;69.73;95091.00;5040879;28;20278;-67
2021/12/08 04:31:54;;;;;;;18.40;5.97;;;;;;;5.50;69.73;95099.69;5051671;28;20795;-67
2021/12/08 04:34:26;;;;;;;8.50;5.33;;;;;;;5.57;69.20;95092.81;5051535;28;20452;-68
2021/12/08 04:36:57;;;;;;;8.33;5.00;;;;;;;5.13;70.54;95085.63;5052475;28;20437;-67
2021/12/08 04:39:41;;;;;;;9.47;5.10;;;;;;;5.32;70.39;95087.78;5055159;28;20498;-67
2021/12/08 04:42:12;;;;;;;6.37;5.10;;;;;;;5.41;70.58;95091.13;5044508;28;20461;-69
2021/12/08 04:44:46;;;;;;;6.03;5.03;;;;;;;5.05;72.05;95092.44;5052855;28;20829;-68
2021/12/08 04:50:21;;;;;;;8.23;6.03;;;;;;;5.58;70.64;95089.25;5051225;28;20433;-67
2021/12/08 04:53:01;;;;;;;7.03;5.43;;;;;;;5.56;70.86;95088.59;5049596;28;20437;-66
2021/12/08 05:09:18;;;;;;;8.57;6.60;;;;;;;5.74;70.81;95087.50;5044115;28;20425;-67
2021/12/08 05:11:53;;;;;;;8.70;6.00;;;;;;;5.81;70.34;95088.41;5048677;28;20475;-67
2021/12/08 05:14:26;;;;;;;7.70;6.40;;;;;;;5.79;70.54;95087.81;5052987;28;21022;-67
2021/12/08 05:16:59;;;;;;;8.77;6.03;;;;;;;5.90;70.65;95095.19;5050999;28;20944;-66
2021/12/08 05:19:29;;;;;;;8.30;6.20;;;;;;;5.97;70.18;95096.09;5051056;28;20422;-68
2021/12/08 05:21:59;;;;;;;8.10;6.77;;;;;;;6.02;70.09;95102.59;5053678;28;20491;-69
2021/12/08 05:24:34;;;;;;;8.43;6.30;;;;;;;5.94;70.58;95095.66;5051222;28;21139;-69
2021/12/08 05:27:05;;;;;;;11.20;6.63;;;;;;;5.96;70.71;95110.09;5049722;28;20942;-67
2021/12/08 05:29:40;;;;;;;7.97;6.43;;;;;;;5.91;71.27;95112.41;5050922;28;20493;-67
2021/12/08 05:32:07;;;;;;;8.60;6.30;;;;;;;5.88;71.41;95101.53;5038712;28;20491;-67
2021/12/08 05:34:33;;;;;;;9.37;6.73;;;;;;;5.95;71.03;95103.25;5051498;28;20503;-67
2021/12/08 05:37:00;;;;;;;8.60;6.10;;;;;;;5.90;71.71;95109.97;5046922;28;20916;-67
2021/12/08 05:39:29;;;;;;;11.00;6.77;;;;;;;5.98;71.46;95104.72;5055173;28;20436;-67
2021/12/08 05:41:59;;;;;;;9.60;6.47;;;;;;;6.04;71.19;95104.03;5054948;28;20449;-68
2021/12/08 05:44:25;;;;;;;11.93;7.80;;;;;;;6.09;71.27;95113.91;5055844;28;20788;-67
2021/12/08 05:46:53;;;;;;;8.83;7.23;;;;;;;6.12;71.42;95108.38;5053579;28;20425;-67
2021/12/08 05:49:19;;;;;;;8.90;7.30;;;;;;;5.96;72.25;95104.88;5053535;28;20483;-67
2021/12/08 05:51:47;;;;;;;9.90;7.47;;;;;;;6.20;71.35;95100.50;5063279;28;20417;-67
2021/12/08 05:54:18;;;;;;;12.40;8.77;;;;;;;6.23;71.65;95079.31;5054768;28;20222;-67
2021/12/08 05:56:46;;;;;;;12.70;7.60;;;;;;;6.04;72.26;95072.84;5054704;28;20749;-67
2021/12/08 05:59:14;;;;;;;11.30;7.87;;;;;;;6.18;71.82;95049.63;5054157;28;20444;-68
2021/12/08 06:01:44;;;;;;;12.30;8.07;;;;;;;6.22;71.57;95071.72;5054175;28;20455;-67
2021/12/08 06:04:11;;;;;;;10.33;7.60;;;;;;;6.13;71.99;95096.97;5054771;28;20434;-70
2021/12/08 06:06:37;;;;;;;11.20;7.77;;;;;;;6.30;70.92;95080.22;5060084;28;20447;-66
2021/12/08 06:09:05;;;;;;;11.97;8.10;;;;;;;6.07;71.92;95084.66;5062297;28;20932;-66
2021/12/08 06:11:32;;;;;;;9.90;7.90;;;;;;;6.21;71.29;95091.69;5035323;28;20437;-67
2021/12/08 06:14:00;;;;;;;12.47;9.13;;;;;;;6.43;70.72;95081.41;5052476;28;20970;-66
2021/12/08 06:16:27;;;;;;;14.23;8.30;;;;;;;6.42;70.38;95077.22;5042983;28;20471;-66
2021/12/08 06:18:53;;;;;;;10.17;7.40;;;;;;;6.52;70.54;95062.13;5054296;28;20425;-67
2021/12/08 06:21:21;;;;;;;13.43;7.87;;;;;;;6.57;70.14;95065.00;5037881;28;20603;-67
2021/12/08 06:23:48;;;;;;;12.27;8.00;;;;;;;6.55;70.27;95061.75;5065960;28;20207;-66
2021/12/08 06:26:17;;;;;;;12.57;7.00;;;;;;;6.55;70.08;95069.56;5060564;28;20923;-67
2021/12/08 06:28:43;;;;;;;13.30;7.73;;;;;;;6.37;70.65;95058.72;5054700;28;20429;-70
2021/12/08 06:31:09;;;;;;;10.00;7.77;;;;;;;6.53;70.38;95058.56;5062159;28;20441;-68
2021/12/08 06:33:34;;;;;;;12.07;7.53;;;;;;;6.57;70.29;95059.78;5073750;28;20202;-70
2021/12/08 06:36:08;;;;;;;9.83;6.93;;;;;;;6.40;70.60;95043.53;5065298;28;20436;-67
2021/12/08 06:38:33;;;;;;;9.63;7.70;;;;;;;6.58;70.21;95045.78;5081127;28;20175;-69
2021/12/08 06:41:21;;;;;;;9.13;6.83;;;;;;;6.44;70.57;95070.00;5073328;28;20436;-67
2021/12/08 06:43:57;;;;;;;9.67;7.27;;;;;;;6.57;70.35;95067.59;5082764;28;20229;-67
2021/12/08 06:46:24;;;;;;;10.07;7.37;;;;;;;6.72;70.25;95064.19;5051887;28;20420;-68
2021/12/08 06:48:53;;;;;;;12.20;7.57;;;;;;;6.73;69.88;95065.81;5070577;28;20465;-68
2021/12/08 06:51:24;;;;;;;12.80;7.90;;;;;;;6.66;70.02;95070.13;5068967;28;20424;-67
2021/12/08 06:53:53;;;;;;;9.43;6.80;;;;;;;6.64;69.98;95069.50;5060589;28;20453;-67
2021/12/08 06:56:31;;;;;;;8.80;6.20;;;;;;;6.68;70.05;95088.97;5067383;28;20413;-67
2021/12/08 06:59:01;;;;;;;7.97;6.30;;;;;;;6.67;70.10;95085.56;5070948;28;20406;-68
2021/12/08 07:02:03;;;;;;;6.93;6.10;;;;;;;6.84;69.77;95091.38;5068161;28;20930;-68
2021/12/08 07:04:53;;;;;;;9.77;5.73;;;;;;;6.88;69.61;95089.22;5055165;28;20520;-69
2021/12/08 07:07:23;;;;;;;11.20;6.73;;;;;;;6.74;69.74;95106.47;5062420;28;20919;-68
2021/12/08 07:09:53;;;;;;;8.20;6.23;;;;;;;6.77;69.59;95108.72;5062228;28;20418;-68
2021/12/08 07:12:24;;;;;;;8.10;6.13;;;;;;;6.77;69.93;95111.31;5059727;28;20427;-69
2021/12/08 07:14:54;;;;;;;8.20;6.13;;;;;;;6.69;70.10;95108.78;5069505;28;20432;-67
2021/12/08 07:17:22;;;;;;;9.43;6.57;;;;;;;6.76;69.72;95109.72;5074174;28;20404;-68
2021/12/08 07:20:02;;;;;;;7.60;6.10;;;;;;;6.74;69.58;95106.47;5073480;28;20981;-68
2021/12/08 07:22:30;;;;;;;9.87;6.67;;;;;;;6.81;69.69;95117.78;5070435;28;20456;-67
2021/12/08 07:24:59;;;;;;;7.50;6.33;;;;;;;6.72;69.50;95113.66;5069748;28;20436;-68
2021/12/08 07:27:28;;;;;;;6.87;6.13;;;;;;;6.70;70.26;95113.00;5073344;28;20508;-67
2021/12/08 07:29:56;;;;;;;9.20;6.43;;;;;;;6.70;69.80;95106.03;5073226;28;20440;-68
2021/12/08 07:32:31;;;;;;;9.50;7.10;;;;;;;6.74;69.45;95106.47;5078616;28;20424;-67
2021/12/08 07:34:59;;;;;;;8.77;6.67;;;;;;;6.71;69.76;95106.81;5074417;28;20515;-67
2021/12/08 07:37:29;;;;;;;10.33;7.43;;;;;;;6.69;69.81;95098.38;5071879;28;20479;-67
2021/12/08 07:40:05;;;;;;;11.07;7.50;;;;;;;6.80;69.40;95095.34;5064532;28;20426;-67
2021/12/08 07:42:37;;;;;;;11.50;7.30;;;;;;;6.88;69.76;95082.22;5073315;28;20498;-67
2021/12/08 07:45:08;;;;;;;10.57;7.60;;;;;;;6.83;69.46;95087.16;5059069;28;20416;-68
2021/12/08 07:47:35;;;;;;;9.30;7.20;;;;;;;6.87;69.01;95088.44;5070416;28;20425;-69
2021/12/08 07:50:42;;;;;;;10.10;7.20;;;;;;;6.82;69.45;95077.72;5055986;28;20409;-70
2021/12/08 07:53:09;;;;;;;9.17;7.60;;;;;;;6.76;69.28;95076.66;5037583;28;20452;-66
2021/12/08 07:55:39;;;;;;;9.83;7.90;;;;;;;6.83;69.14;95071.53;5066366;28;20440;-65
2021/12/08 07:58:06;;;;;;;11.30;8.00;;;;;;;6.83;69.07;95084.56;5046516;28;20421;-68
2021/12/08 08:00:47;;;;;;;11.23;7.30;;;;;;;6.75;69.65;95089.88;5065006;28;20457;-67
2021/12/08 08:03:15;;;;;;;8.73;7.03;;;;;;;6.86;68.97;95084.19;5056659;28;20433;-65
2021/12/08 08:05:42;;;;;;;9.37;6.93;;;;;;;6.80;69.36;95084.13;5042349;28;20441;-67
2021/12/08 08:08:11;;;;;;;10.63;6.50;;;;;;;6.73;69.69;95082.25;5069619;28;20647;-66
2021/12/08 08:10:42;;;;;;;10.10;6.93;;;;;;;6.88;68.87;95087.44;5066883;28;20425;-67
2021/12/08 08:13:08;;;;;;;11.50;6.90;;;;;;;6.67;69.73;95089.97;5069907;28;20812;-69
2021/12/08 08:15:40;;;;;;;8.73;7.27;;;;;;;6.63;69.96;95088.69;5063581;28;20467;-68
2021/12/08 08:18:08;;;;;;;8.60;6.77;;;;;;;6.77;69.77;95080.09;5054854;28;21008;-69
2021/12/08 08:20:42;;;;;;;14.57;7.20;;;;;;;6.86;69.34;95073.78;5043633;28;20485;-68
2021/12/08 08:23:08;;;;;;;9.87;7.70;;;;;;;6.87;69.57;95085.00;5049299;28;20445;-70
2021/12/08 08:25:40;;;;;;;11.23;7.07;;;;;;;6.82;69.31;95095.97;5066628;28;20436;-66
2021/12/08 08:28:06;;;;;;;8.83;6.90;;;;;;;6.80;69.57;95097.13;5071751;28;20409;-67
2021/12/08 08:30:40;;;;;;;7.20;5.90;;;;;;;6.88;69.11;95105.66;5070051;28;20409;-69
2021/12/08 08:33:06;;;;;;;6.77;6.00;;;;;;;6.87;69.68;95105.81;5061165;28;20455;-68
2021/12/08 08:35:38;;;;;;;11.37;6.90;;;;;;;6.94;69.05;95088.50;5065656;28;20911;-68
2021/12/08 08:38:11;;;;;;;9.50;7.40;;;;;;;6.99;69.06;95091.38;5056239;28;20424;-69
2021/12/08 08:40:41;;;;;;;10.82;7.20;;;;;;;7.02;68.96;95087.59;5054458;28;20436;-68
2021/12/08 08:43:09;;;;;;;7.77;6.33;;;;;;;6.95;69.17;95084.91;5063433;28;20612;-68
2021/12/08 08:45:52;;;;;;;7.27;6.20;;;;;;;7.03;68.91;95078.81;5068760;28;20884;-68
2021/12/08 08:48:30;;;;;;;9.27;6.50;;;;;;;6.84;68.95;95080.97;5050691;28;20418;-67
2021/12/08 08:51:19;;;;;;;8.23;5.60;;;;;;;6.80;68.84;95077.13;5070666;28;21068;-68
2021/12/08 08:53:47;;;;;;;9.43;6.47;;;;;;;6.99;68.80;95077.53;5070746;28;20440;-69
2021/12/08 08:56:23;;;;;;;9.17;6.47;;;;;;;6.79;68.79;95098.94;5067506;28;20425;-68
2021/12/08 08:58:52;;;;;;;7.27;5.93;;;;;;;6.77;69.27;95103.50;5059811;28;20416;-68
2021/12/08 09:01:35;;;;;;;9.67;6.17;;;;;;;6.75;69.70;95114.09;5066223;28;20556;-68
2021/12/08 09:04:06;;;;;;;8.30;5.93;;;;;;;6.93;69.08;95110.31;5065430;28;20498;-68
2021/12/08 09:06:36;;;;;;;7.57;6.20;;;;;;;6.80;68.98;95110.97;5050127;28;20411;-68
2021/12/08 09:09:08;;;;;;;7.73;6.23;;;;;;;6.85;69.09;95113.03;5053485;28;20440;-70
2021/12/08 09:11:38;;;;;;;6.40;5.00;;;;;;;6.94;69.08;95111.13;5072316;28;20431;-68
2021/12/08 09:14:18;;;;;;;7.47;5.53;;;;;;;6.73;69.41;95110.88;5069443;28;20437;-67
2021/12/08 09:16:56;;;;;;;6.33;5.23;;;;;;;6.82;69.53;95118.59;5066770;28;20507;-68
2021/12/08 09:19:27;;;;;;;7.50;5.43;;;;;;;6.68;69.75;95117.63;5054566;28;20420;-67
2021/12/08 09:22:00;;;;;;;5.23;4.60;;;;;;;6.75;69.07;95126.31;5066981;28;20485;-69
2021/12/08 09:24:36;;;;;;;7.63;5.27;;;;;;;7.00;68.76;95120.84;5069519;28;20939;-67
2021/12/08 09:27:08;;;;;;;8.43;6.50;;;;;;;7.14;68.30;95117.41;5055090;28;20455;-68
2021/12/08 09:29:43;;;;;;;7.90;5.60;;;;;;;6.98;68.70;95117.59;5071228;28;20513;-68
2021/12/08 09:32:36;;;;;;;11.57;6.50;;;;;;;7.14;68.31;95122.63;5063186;28;20997;-68
2021/12/08 09:35:40;;;;;;;7.83;6.10;;;;;;;7.21;68.25;95122.69;5070434;28;20433;-69
2021/12/08 09:38:27;;;;;;;12.03;6.50;;;;;;;7.18;68.07;95125.66;5068074;28;20431;-67
2021/12/08 09:40:57;;;;;;;14.40;5.53;;;;;;;7.33;68.28;95120.41;5068192;28;20591;-68
2021/12/08 09:43:51;;;;;;;7.00;4.90;;;;;;;7.38;67.51;95111.06;5061987;28;20466;-68
2021/12/08 09:46:19;;;;;;;8.37;6.93;;;;;;;7.52;67.70;95104.22;5062017;28;20907;-67
2021/12/08 09:48:46;;;;;;;9.43;7.07;;;;;;;7.49;67.52;95099.34;5061245;28;20484;-69
2021/12/08 09:51:13;;;;;;;6.70;4.77;;;;;;;7.43;67.77;95099.28;5057108;28;20445;-68
2021/12/08 09:53:42;;;;;;;10.23;4.93;;;;;;;7.57;67.68;95101.03;5064994;28;20514;-69
2021/12/08 09:56:08;;;;;;;7.90;5.50;;;;;;;7.55;67.07;95099.63;5065571;28;20604;-68
2021/12/08 09:58:36;;;;;;;5.33;4.73;;;;;;;7.49;67.38;95099.34;5063924;28;20476;-69
2021/12/08 10:01:04;;;;;;;7.23;5.60;;;;;;;7.67;66.80;95093.72;5035685;28;20292;-69
2021/12/08 10:03:30;;;;;;;6.83;5.50;;;;;;;7.76;66.96;95094.41;5038977;28;20460;-67
2021/12/08 10:05:55;;;;;;;6.00;4.97;;;;;;;7.82;66.53;95080.63;5040234;28;20995;-68
2021/12/08 10:08:21;;;;;;;7.73;4.90;;;;;;;7.80;67.07;95087.84;5047672;28;20187;-68
2021/12/08 10:10:47;;;;;;;11.13;4.53;;;;;;;7.79;66.73;95093.22;5056584;28;20689;-68
2021/12/08 10:13:15;;;;;;;8.40;5.20;;;;;;;7.83;66.15;95103.09;5051130;28;20214;-68
2021/12/08 10:15:41;;;;;;;17.87;5.00;;;;;;;7.78;66.92;95099.44;5066066;28;20450;-68
2021/12/08 10:18:08;;;;;;;8.80;5.03;;;;;;;7.84;66.63;95093.50;5071876;28;20779;-68
2021/12/08 10:20:44;;;;;;;6.83;4.53;;;;;;;7.91;66.44;95096.16;5072997;28;20452;-68
2021/12/08 10:23:17;;;;;;;14.40;5.83;;;;;;;8.01;66.29;95091.44;5051003;28;20528;-69
2021/12/08 10:26:00;;;;;;;7.30;5.27;;;;;;;7.98;66.82;95090.00;5048107;28;20443;-67
2021/12/08 10:28:34;;;;;;;8.50;6.27;;;;;;;8.11;66.36;95081.47;5046426;28;20439;-67
2021/12/08 10:31:24;;;;;;;14.40;7.90;;;;;;;8.14;65.99;95083.72;5058955;28;20989;-68
2021/12/08 10:34:09;;;;;;;11.37;6.93;;;;;;;8.20;65.77;95076.09;5054792;28;20445;-69
2021/12/08 10:39:10;;;;;;;15.03;6.33;;;;;;;8.33;65.66;95076.19;5074130;28;20417;-69
2021/12/08 10:41:56;;;;;;;11.60;6.20;;;;;;;8.13;65.94;95069.03;5073771;28;20460;-67
2021/12/08 10:44:25;;;;;;;6.50;4.73;;;;;;;8.17;65.21;95066.84;5065018;28;20962;-68
2021/12/08 10:46:56;;;;;;;4.90;3.60;;;;;;;8.19;65.51;95056.25;5065561;28;20832;-69
2021/12/08 10:55:21;;;;;;;5.90;4.67;;;;;;;8.05;65.86;95050.13;5056923;28;20420;-68
2021/12/08 10:57:50;;;;;;;6.23;3.93;;;;;;;8.09;65.50;95048.75;5050874;28;20445;-68
2021/12/08 11:00:25;;;;;;;5.97;4.33;;;;;;;8.07;65.20;95037.69;5073667;28;20428;-68
2021/12/08 11:02:50;;;;;;;4.33;3.93;;;;;;;7.48;66.40;95052.63;5074665;28;20515;-68
2021/12/08 11:05:25;;;;;;;5.97;4.33;;;;;;;7.15;67.57;95046.09;5058326;28;20450;-68
2021/12/08 11:08:02;;;;;;;7.37;5.80;;;;;;;7.30;68.06;95042.63;5046748;28;20213;-68
2021/12/08 11:10:33;;;;;;;7.97;4.73;;;;;;;7.30;67.98;95043.44;5060761;28;20427;-68
2021/12/08 11:13:00;;;;;;;5.27;4.20;;;;;;;7.51;67.73;95031.41;5072896;28;20556;-68
2021/12/08 11:15:27;;;;;;;10.87;5.00;;;;;;;7.56;67.41;95031.66;5061355;28;20421;-66
2021/12/08 11:18:07;;;;;;;5.03;4.13;;;;;;;7.35;68.06;95038.47;5074443;28;20431;-68
2021/12/08 11:20:33;;;;;;;8.43;5.10;;;;;;;7.56;67.77;95025.66;5059477;28;20451;-68
2021/12/08 11:23:01;;;;;;;11.47;6.57;;;;;;;7.55;67.93;95024.03;5081066;28;20447;-68
2021/12/08 11:25:32;;;;;;;11.50;5.70;;;;;;;7.86;66.92;95020.28;5079013;28;20448;-69
2021/12/08 11:28:19;;;;;;;10.17;6.10;;;;;;;7.94;66.22;95012.31;5086216;28;20512;-68
2021/12/08 11:30:46;;;;;;;7.20;5.20;;;;;;;7.91;66.38;95010.88;5077920;28;20440;-68
2021/12/08 11:33:18;;;;;;;14.33;5.40;;;;;;;8.04;65.15;95001.53;5079696;28;20563;-68
2021/12/08 11:35:45;;;;;;;8.00;4.43;;;;;;;8.20;65.41;95000.44;5077827;28;20424;-68
2021/12/08 11:38:11;;;;;;;4.93;4.40;;;;;;;8.11;65.10;95002.41;5081954;28;20453;-67
2021/12/08 11:40:37;;;;;;;7.70;5.37;;;;;;;8.24;65.05;95001.69;5068392;28;20458;-68
2021/12/08 11:43:03;;;;;;;8.30;5.10;;;;;;;8.42;64.90;95004.59;5037486;28;20240;-68
2021/12/08 11:45:37;;;;;;;4.90;4.40;;;;;;;8.39;63.39;95004.97;5058722;28;20427;-69
2021/12/08 11:48:04;;;;;;;5.57;4.80;;;;;;;8.39;64.10;95012.81;5070862;28;20433;-68
2021/12/08 11:50:32;;;;;;;8.93;6.20;;;;;;;8.21;64.55;95018.53;5066799;28;20422;-68
2021/12/08 11:52:57;;;;;;;5.50;5.00;;;;;;;8.35;64.93;95019.41;5061098;28;20940;-67
2021/12/08 11:55:26;;;;;;;6.60;5.27;;;;;;;8.40;64.57;95024.88;5069608;28;20425;-67
2021/12/08 11:57:54;;;;;;;6.37;5.03;;;;;;;8.12;64.37;95015.25;5064750;28;20182;-68
2021/12/08 12:00:24;;;;;;;5.90;4.80;;;;;;;7.90;65.56;95027.53;5071580;28;20413;-68
2021/12/08 12:03:05;;;;;;;5.40;4.90;;;;;;;7.66;65.98;95026.13;5069320;28;20429;-68
2021/12/08 12:05:31;;;;;;;5.87;5.27;;;;;;;7.94;65.28;95020.94;5065940;28;20428;-68
2021/12/08 12:07:57;;;;;;;6.63;5.93;;;;;;;7.84;65.56;95026.47;5071214;28;20425;-69
2021/12/08 12:10:27;;;;;;;6.60;5.90;;;;;;;7.96;64.54;95026.78;5069926;28;20435;-68
2021/12/08 12:12:52;;;;;;;10.10;7.70;;;;;;;8.08;64.72;95021.03;5064318;28;20782;-67
2021/12/08 12:15:21;;;;;;;8.27;6.80;;;;;;;7.10;67.17;95021.59;5069180;28;20554;-70
2021/12/08 12:17:47;;;;;;;8.53;7.53;;;;;;;7.51;66.45;95013.97;5073340;28;20186;-67
2021/12/08 12:20:17;;;;;;;8.70;6.97;;;;;;;7.75;66.03;95013.78;5059373;28;20436;-69
2021/12/08 12:23:11;;;;;;;8.93;6.97;;;;;;;7.13;67.82;95022.00;5068210;28;20927;-67
2021/12/08 12:26:01;;;;;;;11.90;6.63;;;;;;;7.26;67.70;95033.56;5069830;28;20512;-68
2021/12/08 12:29:04;;;;;;;11.23;7.73;;;;;;;7.49;67.17;95025.59;5054343;28;20749;-68
2021/12/08 12:31:42;;;;;;;7.80;6.53;;;;;;;7.13;68.31;95022.00;5064885;28;20412;-68
2021/12/08 12:34:29;;;;;;;11.60;6.73;;;;;;;7.58;67.38;95018.44;5058144;28;20535;-68
2021/12/08 12:36:56;;;;;;;12.53;8.07;;;;;;;7.72;66.66;95019.38;5059185;28;20605;-67
2021/12/08 12:39:25;;;;;;;15.30;8.80;;;;;;;7.79;67.02;95010.59;5055552;28;20918;-67
2021/12/08 12:42:02;;;;;;;10.93;8.80;;;;;;;7.40;67.66;95011.03;5062824;28;20515;-69